Meath Environmental Platform

Observations for Trim Patrick St

Time AQI Temp °C Hum % Pres Pa CO μg/m³ H₂S μg/m³ NO μg/m³ NO₂ μg/m³ O₃ μg/m³ SO₂ μg/m³ PM1 μg/m³ PM2.5 μg/m³ PM10 μg/m³
Wednesday 5 August 2026
04:21 2 15.4 75 38,460 0.16 0 2.65 9.85 48.77 0 2 5.54 6.09
04:20 2 15.4 76 38,460 0.16 0.05 2.68 12.47 64.84 0 2.86 6.22 6.85
04:19 2 15.4 75 38,460 0.17 0 2.55 9.32 51.32 0 2.86 6.24 6.86
04:18 2 15.4 75 38,460 0.15 0 2.54 10.4 55.41 0 2.86 6.95 7.65
04:17 2 15.4 75 38,460 0.15 0 2.57 7.64 37.7 0 2 5.55 6.11
04:16 2 15.4 75 38,460 0.15 0 2.54 9.67 52.32 0 2 6.24 6.87
04:15 2 15.4 75 38,460 0.15 0.02 2.52 11.17 60.62 0 2.86 6.24 6.86
04:14 2 15.4 76 38,460 0.14 0.05 2.54 12.1 63.73 0 3.71 6.92 7.61
04:13 2 15.4 76 38,460 0.16 0 2.61 10.25 48.93 0 2 4.8 5.29
04:12 2 15.4 75 38,460 0.14 0.13 2.64 11.74 63.6 0 2.86 6.25 6.88
04:11 2 15.4 75 38,460 0.15 0 2.7 9.68 41.75 0 2 5.53 6.08
04:10 2 15.4 76 38,460 0.14 0.28 2.7 11.67 61.29 0 2 5.49 6.04
04:09 2 15.4 76 38,460 0.15 0.31 2.77 11.61 63.94 0 2.86 6.22 6.85
04:08 2 15.4 75 38,460 0.15 0 2.73 10.03 46.96 0 2.86 5.54 6.09
04:07 2 15.4 76 38,460 0.15 1.04 2.65 11.94 58.52 0 2.86 6.22 6.85
04:06 2 15.4 76 38,460 0.15 0.31 2.58 11.98 63.44 0 2.86 5.5 6.05
04:05 2 15.4 76 38,460 0.16 0.39 2.62 12.21 56.39 0 2.86 6.22 6.84
04:04 2 15.4 75 38,460 0.16 0.28 2.53 9.32 53.38 0 2 5.53 6.08
04:03 2 15.5 75 38,460 0.15 0 2.56 9.44 40.19 0 2.86 6.24 6.86
04:02 2 15.4 75 38,460 0.15 0.67 2.65 13.06 64.92 0 2.86 7.67 8.44